Time;durP1;ratioP1;P1;durP2;ratioP2;P2;SDS_P1;SDS_P2;PMS_P1;PMS_P2;Temp;Humidity;BMP_temperature;BMP_pressure;BME280_temperature;BME280_humidity;BME280_pressure;Samples;Min_cycle;Max_cycle;Signal;HPM_P1;HPM_P2
2021/03/06 00:00:31;;;;;;;10.10;6.53;;;-1.20;99.90;;;;;;5113499;27;20635;-75
2021/03/06 00:02:58;;;;;;;9.40;7.00;;;-1.40;99.90;;;;;;5113308;27;20536;-74
2021/03/06 00:05:25;;;;;;;11.97;7.20;;;-1.50;99.90;;;;;;5126402;27;20552;-73
2021/03/06 00:07:52;;;;;;;9.37;6.70;;;-1.60;99.90;;;;;;5125115;27;20472;-76
2021/03/06 00:10:18;;;;;;;8.33;5.80;;;-1.60;99.90;;;;;;5127728;27;20990;-74
2021/03/06 00:12:47;;;;;;;8.53;6.03;;;-1.50;99.90;;;;;;5124915;27;20445;-74
2021/03/06 00:15:15;;;;;;;11.60;6.23;;;-1.50;99.90;;;;;;5111706;28;20957;-75
2021/03/06 00:17:42;;;;;;;8.97;5.60;;;-1.40;99.90;;;;;;5117679;27;20450;-73
2021/03/06 00:20:10;;;;;;;8.77;5.80;;;-1.40;99.90;;;;;;5119249;27;20570;-75
2021/03/06 00:22:37;;;;;;;8.50;5.53;;;-1.40;99.90;;;;;;5127782;27;20488;-75
2021/03/06 00:25:06;;;;;;;8.50;6.00;;;-1.30;99.90;;;;;;5126491;27;20542;-74
2021/03/06 00:27:32;;;;;;;6.60;5.40;;;-1.30;99.90;;;;;;5126796;27;20496;-75
2021/03/06 00:29:59;;;;;;;7.83;5.90;;;-1.20;99.90;;;;;;5119399;27;20504;-74
2021/03/06 00:32:25;;;;;;;6.70;5.50;;;-1.20;99.90;;;;;;5119112;27;20928;-74
2021/03/06 00:34:51;;;;;;;8.87;5.70;;;-1.30;99.90;;;;;;5110844;28;20995;-73
2021/03/06 00:37:19;;;;;;;10.67;6.67;;;-1.40;99.90;;;;;;5111313;28;20473;-75
2021/03/06 00:39:45;;;;;;;8.93;6.20;;;-1.50;99.90;;;;;;5122908;27;20512;-75
2021/03/06 00:42:11;;;;;;;8.60;5.97;;;-1.40;99.90;;;;;;5127810;27;20477;-75
2021/03/06 00:44:38;;;;;;;12.70;6.97;;;-1.40;99.90;;;;;;5121603;27;20528;-75
2021/03/06 00:47:04;;;;;;;8.43;5.67;;;-1.30;99.90;;;;;;5125947;27;20531;-74
2021/03/06 00:49:31;;;;;;;9.30;6.17;;;-1.30;99.90;;;;;;5122876;27;20535;-73
2021/03/06 00:51:57;;;;;;;9.13;6.27;;;-1.30;99.90;;;;;;5128422;27;20532;-74
2021/03/06 00:54:24;;;;;;;10.00;6.50;;;-1.30;99.90;;;;;;5118480;27;20477;-75
2021/03/06 00:56:51;;;;;;;8.67;6.33;;;-1.20;99.90;;;;;;5118990;27;20533;-75
2021/03/06 00:59:17;;;;;;;8.47;6.60;;;-1.30;99.90;;;;;;5114681;27;20927;-76
2021/03/06 01:01:44;;;;;;;12.63;6.77;;;-1.30;99.90;;;;;;5130969;27;20440;-74
2021/03/06 01:04:10;;;;;;;9.17;6.50;;;-1.50;99.90;;;;;;5123404;27;20480;-73
2021/03/06 01:06:36;;;;;;;9.93;6.27;;;-1.60;99.90;;;;;;5123709;27;20486;-75
2021/03/06 01:09:04;;;;;;;7.30;6.43;;;-1.70;99.90;;;;;;5127548;27;20786;-73
2021/03/06 01:11:31;;;;;;;12.00;7.30;;;-1.70;99.90;;;;;;5116298;27;20437;-73
2021/03/06 01:13:58;;;;;;;7.80;6.50;;;-1.80;99.90;;;;;;5123207;27;20503;-75
2021/03/06 01:16:24;;;;;;;12.27;6.23;;;-1.80;99.90;;;;;;5107931;27;20472;-74
2021/03/06 01:18:51;;;;;;;10.30;7.57;;;-1.80;99.90;;;;;;5127928;27;20468;-74
2021/03/06 01:21:17;;;;;;;8.00;6.30;;;-1.70;99.90;;;;;;5121372;27;20539;-74
2021/03/06 01:23:44;;;;;;;8.30;6.70;;;-1.80;99.90;;;;;;5130954;27;20571;-74
2021/03/06 01:26:10;;;;;;;11.10;6.93;;;-1.80;99.90;;;;;;5115389;27;20445;-74
2021/03/06 01:28:38;;;;;;;8.57;5.80;;;-1.90;99.90;;;;;;5112223;27;20476;-75
2021/03/06 01:31:04;;;;;;;9.87;6.90;;;-1.90;99.90;;;;;;5131658;27;20900;-75
2021/03/06 01:33:30;;;;;;;11.60;6.60;;;-1.90;99.90;;;;;;5130952;27;20449;-76
2021/03/06 01:35:57;;;;;;;7.17;5.70;;;-2.00;99.90;;;;;;5111662;27;20527;-75
2021/03/06 01:38:23;;;;;;;10.30;7.03;;;-2.00;99.90;;;;;;5103454;28;20596;-74
2021/03/06 01:40:50;;;;;;;8.83;6.43;;;-1.90;99.90;;;;;;5117836;28;20571;-74
2021/03/06 01:43:17;;;;;;;12.10;7.10;;;-1.90;99.90;;;;;;5130570;28;20452;-74
2021/03/06 01:45:45;;;;;;;9.40;7.57;;;-1.90;99.90;;;;;;5123409;27;20973;-74
2021/03/06 01:48:11;;;;;;;9.40;6.37;;;-1.90;99.90;;;;;;5115916;27;20579;-76
2021/03/06 01:50:40;;;;;;;8.83;6.27;;;-1.80;99.90;;;;;;5112298;28;20445;-74
2021/03/06 01:53:09;;;;;;;9.30;6.27;;;-1.80;99.90;;;;;;5112708;28;20479;-75
2021/03/06 01:55:38;;;;;;;8.23;6.00;;;-1.90;99.90;;;;;;5110843;28;21186;-74
2021/03/06 01:58:06;;;;;;;7.43;6.43;;;-1.90;99.90;;;;;;5112946;28;20488;-74
2021/03/06 02:00:33;;;;;;;10.27;7.90;;;-1.90;99.90;;;;;;5112640;28;20501;-74
2021/03/06 02:03:01;;;;;;;7.27;5.87;;;-2.00;99.90;;;;;;5112379;28;20446;-74
2021/03/06 02:05:28;;;;;;;10.53;7.17;;;-2.10;99.90;;;;;;5111386;28;20581;-75
2021/03/06 02:07:55;;;;;;;9.00;6.60;;;-2.10;99.90;;;;;;5112492;28;20923;-75
2021/03/06 02:10:25;;;;;;;9.40;6.23;;;-2.10;99.90;;;;;;5112388;28;20517;-75
2021/03/06 02:12:59;;;;;;;8.50;5.97;;;-2.20;99.90;;;;;;5112384;28;20494;-73
2021/03/06 02:15:36;;;;;;;6.30;5.10;;;-2.10;99.90;;;;;;5115283;28;20469;-74
2021/03/06 02:18:06;;;;;;;11.63;6.40;;;-2.10;99.90;;;;;;5116231;28;20482;-73
2021/03/06 02:20:49;;;;;;;10.60;6.50;;;-2.10;99.90;;;;;;5115898;28;20489;-74
2021/03/06 02:23:57;;;;;;;8.63;5.30;;;-2.20;99.90;;;;;;5115782;28;21008;-73
2021/03/06 02:26:37;;;;;;;8.60;5.53;;;-2.10;99.90;;;;;;5115898;28;20441;-73
2021/03/06 02:29:21;;;;;;;6.47;5.40;;;-2.20;99.90;;;;;;5116032;28;20437;-74
2021/03/06 02:31:49;;;;;;;10.07;5.80;;;-2.30;99.90;;;;;;5115674;28;20587;-73
2021/03/06 02:34:18;;;;;;;8.23;5.60;;;-2.40;99.90;;;;;;5115140;28;20505;-73
2021/03/06 02:36:48;;;;;;;10.80;5.80;;;-2.50;99.90;;;;;;5115739;28;20482;-73
2021/03/06 02:39:18;;;;;;;7.73;5.40;;;-2.40;99.90;;;;;;5115448;28;20573;-73
2021/03/06 02:41:46;;;;;;;7.43;5.27;;;-2.50;99.90;;;;;;5115646;28;20950;-74
2021/03/06 02:44:13;;;;;;;8.17;5.80;;;-2.50;99.90;;;;;;5114925;28;20465;-74
2021/03/06 02:46:43;;;;;;;9.03;6.00;;;-2.60;99.90;;;;;;5115713;27;20543;-73
2021/03/06 02:49:09;;;;;;;7.30;5.97;;;-2.60;99.90;;;;;;5115645;28;20483;-74
2021/03/06 02:51:37;;;;;;;9.13;6.30;;;-2.70;99.90;;;;;;5115745;28;20484;-73
2021/03/06 02:54:04;;;;;;;8.77;7.27;;;-2.70;99.90;;;;;;5114630;28;20462;-73
2021/03/06 02:56:31;;;;;;;11.37;8.20;;;-2.70;99.90;;;;;;5115674;28;20967;-73
2021/03/06 02:59:16;;;;;;;8.57;6.70;;;-2.80;99.90;;;;;;5115689;28;20548;-73
2021/03/06 03:01:54;;;;;;;8.80;6.20;;;-2.80;99.90;;;;;;5115480;28;20445;-74
2021/03/06 03:04:28;;;;;;;9.67;7.20;;;-2.80;99.90;;;;;;5114407;28;20465;-73
2021/03/06 03:07:03;;;;;;;10.63;6.60;;;-2.80;99.90;;;;;;5115190;28;20486;-73
2021/03/06 03:09:34;;;;;;;9.00;6.10;;;-2.80;99.90;;;;;;5114993;27;20543;-74
2021/03/06 03:12:04;;;;;;;9.87;6.73;;;-2.80;99.90;;;;;;5115248;28;20501;-74
2021/03/06 03:14:34;;;;;;;11.70;7.13;;;-2.90;99.90;;;;;;5114392;28;21099;-74
2021/03/06 03:17:08;;;;;;;11.53;7.30;;;-3.00;99.90;;;;;;5114895;28;20537;-74
2021/03/06 03:19:37;;;;;;;9.40;6.40;;;-3.00;99.90;;;;;;5114948;28;20552;-74
2021/03/06 03:22:06;;;;;;;8.30;5.80;;;-3.10;99.90;;;;;;5114715;28;20530;-74
2021/03/06 03:24:36;;;;;;;9.80;6.90;;;-3.10;99.90;;;;;;5112540;28;20497;-74
2021/03/06 03:27:06;;;;;;;8.90;6.40;;;-3.20;99.90;;;;;;5114494;28;20484;-74
2021/03/06 03:29:33;;;;;;;11.87;7.27;;;-3.10;99.90;;;;;;5114653;27;20446;-74
2021/03/06 03:32:00;;;;;;;8.37;6.07;;;-3.20;99.90;;;;;;5114696;28;20800;-74
2021/03/06 03:34:28;;;;;;;10.47;6.67;;;-3.20;99.90;;;;;;5114287;28;20575;-74
2021/03/06 03:36:55;;;;;;;9.37;6.73;;;-3.30;99.90;;;;;;5114938;28;20552;-74
2021/03/06 03:39:22;;;;;;;9.20;6.73;;;-3.20;99.90;;;;;;5114573;28;20516;-74
2021/03/06 03:41:49;;;;;;;8.53;6.37;;;-3.20;99.90;;;;;;5114594;28;20488;-73
2021/03/06 03:44:17;;;;;;;9.60;6.27;;;-3.10;99.90;;;;;;5114019;28;20522;-74
2021/03/06 03:46:44;;;;;;;10.03;6.20;;;-3.00;99.90;;;;;;5114163;28;20528;-73
2021/03/06 03:49:15;;;;;;;12.50;6.90;;;-3.00;99.90;;;;;;5114361;28;20963;-74
2021/03/06 03:51:42;;;;;;;8.30;6.03;;;-3.00;99.90;;;;;;5114674;28;20571;-74
2021/03/06 03:54:10;;;;;;;9.53;6.50;;;-3.10;99.90;;;;;;5114105;28;20504;-74
2021/03/06 03:56:37;;;;;;;7.60;6.50;;;-3.10;99.90;;;;;;5114483;28;21020;-74
2021/03/06 03:59:03;;;;;;;9.80;5.97;;;-3.10;99.90;;;;;;5114605;28;20545;-74
2021/03/06 04:01:39;;;;;;;16.43;7.43;;;-3.10;99.90;;;;;;5114697;28;20477;-74
2021/03/06 04:04:07;;;;;;;6.70;5.17;;;-3.10;99.90;;;;;;5113998;28;20465;-74
2021/03/06 04:06:34;;;;;;;8.70;5.90;;;-3.10;99.90;;;;;;5114066;28;20622;-74
2021/03/06 04:09:01;;;;;;;9.87;6.00;;;-3.10;99.90;;;;;;5114115;28;20475;-74
2021/03/06 04:11:28;;;;;;;8.37;5.97;;;-3.10;99.90;;;;;;5114520;28;20441;-74
2021/03/06 04:13:54;;;;;;;8.77;6.97;;;-3.10;99.90;;;;;;5113363;28;20556;-74
2021/03/06 04:16:20;;;;;;;14.47;5.67;;;-3.10;99.90;;;;;;5114633;28;20531;-73
2021/03/06 04:18:47;;;;;;;6.63;5.07;;;-3.00;99.90;;;;;;5114229;28;20441;-74
2021/03/06 04:21:13;;;;;;;7.70;5.53;;;-3.00;99.90;;;;;;5114001;28;20678;-74
2021/03/06 04:23:40;;;;;;;8.23;5.30;;;-3.00;99.90;;;;;;5112755;28;21052;-74
2021/03/06 04:26:07;;;;;;;10.47;7.13;;;-3.10;99.90;;;;;;5113594;28;20524;-74
2021/03/06 04:28:34;;;;;;;8.80;6.00;;;-3.10;99.90;;;;;;5113398;28;20477;-74
2021/03/06 04:31:01;;;;;;;11.63;6.90;;;-3.10;99.90;;;;;;5113705;28;20438;-75
2021/03/06 04:33:27;;;;;;;7.30;6.20;;;-3.20;99.90;;;;;;5113086;28;20528;-74
2021/03/06 04:35:54;;;;;;;8.63;6.67;;;-3.30;99.90;;;;;;5112893;28;20465;-74
2021/03/06 04:38:20;;;;;;;7.43;6.47;;;-3.40;99.90;;;;;;5113669;28;20453;-74
2021/03/06 04:40:46;;;;;;;10.30;7.10;;;-3.40;99.90;;;;;;5113458;28;20569;-74
2021/03/06 04:43:14;;;;;;;9.20;5.90;;;-3.50;99.90;;;;;;5113727;28;20495;-74
2021/03/06 04:45:41;;;;;;;10.10;7.33;;;-3.60;99.90;;;;;;5112570;28;20457;-74
2021/03/06 04:48:07;;;;;;;9.60;7.20;;;-3.50;99.90;;;;;;5112213;28;20985;-74
2021/03/06 04:50:34;;;;;;;8.20;7.07;;;-3.50;99.90;;;;;;5113412;28;20210;-74
2021/03/06 04:53:00;;;;;;;13.13;7.90;;;-3.50;99.90;;;;;;5113360;28;20513;-74
2021/03/06 04:55:27;;;;;;;10.30;6.30;;;-3.40;99.90;;;;;;5112550;28;20496;-74
2021/03/06 04:57:53;;;;;;;9.07;6.43;;;-3.40;99.90;;;;;;5112927;28;20512;-74
2021/03/06 05:00:21;;;;;;;10.40;7.13;;;-3.50;99.90;;;;;;5114275;28;20484;-74
2021/03/06 05:02:47;;;;;;;9.60;6.67;;;-3.50;99.90;;;;;;5114498;28;20465;-75
2021/03/06 05:05:14;;;;;;;10.10;7.20;;;-3.50;99.90;;;;;;5112444;28;20501;-74
2021/03/06 05:07:40;;;;;;;10.67;7.17;;;-3.40;99.90;;;;;;5112954;28;20534;-74
2021/03/06 05:10:08;;;;;;;7.80;6.20;;;-3.40;99.90;;;;;;5112706;28;20472;-75
2021/03/06 05:12:34;;;;;;;11.50;6.03;;;-3.40;99.90;;;;;;5112916;28;20986;-75
2021/03/06 05:15:01;;;;;;;8.63;5.77;;;-3.50;99.90;;;;;;5111759;28;20497;-76
2021/03/06 05:17:28;;;;;;;9.63;7.30;;;-3.60;99.90;;;;;;5112929;28;20518;-75
2021/03/06 05:19:55;;;;;;;7.87;6.43;;;-3.60;99.90;;;;;;5112730;28;20915;-74
2021/03/06 05:22:21;;;;;;;8.23;6.70;;;-3.60;99.90;;;;;;5112393;28;20520;-75
2021/03/06 05:24:48;;;;;;;8.77;6.80;;;-3.60;99.90;;;;;;5111936;28;20492;-74
2021/03/06 05:27:15;;;;;;;9.47;6.47;;;-3.70;99.90;;;;;;5112684;28;20820;-74
2021/03/06 05:29:42;;;;;;;8.73;6.70;;;-3.70;99.90;;;;;;5112521;28;20547;-74
2021/03/06 05:32:09;;;;;;;10.20;7.00;;;-3.70;99.90;;;;;;5112653;28;20480;-75
2021/03/06 05:34:36;;;;;;;11.93;7.63;;;-3.50;99.90;;;;;;5111884;28;20548;-75
2021/03/06 05:37:03;;;;;;;8.53;6.93;;;-3.50;99.90;;;;;;5112466;28;20457;-74
2021/03/06 05:39:30;;;;;;;7.90;7.03;;;-3.50;99.90;;;;;;5112173;28;20477;-75
2021/03/06 05:41:57;;;;;;;9.33;6.73;;;-3.50;99.90;;;;;;5112236;28;20472;-75
2021/03/06 05:44:24;;;;;;;9.60;5.83;;;-3.50;99.90;;;;;;5111784;28;20488;-76
2021/03/06 05:46:52;;;;;;;8.83;6.73;;;-3.50;99.90;;;;;;5112508;28;20441;-74
2021/03/06 05:49:18;;;;;;;11.70;6.20;;;-3.50;99.90;;;;;;5116249;28;20528;-75
2021/03/06 05:51:47;;;;;;;7.77;5.80;;;-3.60;99.90;;;;;;5116442;28;20861;-75
2021/03/06 05:54:14;;;;;;;11.00;8.00;;;-3.60;99.90;;;;;;5116085;28;20907;-74
2021/03/06 05:56:43;;;;;;;14.63;6.70;;;-3.60;99.90;;;;;;5116032;28;20478;-74
2021/03/06 05:59:11;;;;;;;9.67;5.97;;;-3.60;99.90;;;;;;5116392;28;20450;-74
2021/03/06 06:01:39;;;;;;;8.77;6.67;;;-3.50;99.90;;;;;;5116515;28;20476;-74
2021/03/06 06:04:06;;;;;;;9.00;6.93;;;-3.50;99.90;;;;;;5115623;28;21003;-74
2021/03/06 06:06:33;;;;;;;10.10;7.67;;;-3.50;99.90;;;;;;5116386;28;20445;-74
2021/03/06 06:09:01;;;;;;;7.63;6.03;;;-3.50;99.90;;;;;;5116181;27;20448;-75
2021/03/06 06:11:28;;;;;;;9.23;6.30;;;-3.40;99.90;;;;;;5116359;28;20520;-73
2021/03/06 06:13:54;;;;;;;9.00;6.30;;;-3.40;99.90;;;;;;5115054;28;20532;-73
2021/03/06 06:16:21;;;;;;;8.33;5.87;;;-3.40;99.90;;;;;;5116521;28;20867;-73
2021/03/06 06:18:49;;;;;;;8.87;6.30;;;-3.40;99.90;;;;;;5115978;28;20525;-73
2021/03/06 06:21:42;;;;;;;8.40;6.43;;;-3.30;99.90;;;;;;5116251;27;20489;-74
2021/03/06 06:24:11;;;;;;;9.90;6.63;;;-3.40;99.90;;;;;;5114867;28;20904;-74
2021/03/06 06:26:38;;;;;;;9.87;6.27;;;-3.30;99.90;;;;;;5115757;28;20503;-73
2021/03/06 06:29:05;;;;;;;11.40;7.70;;;-3.30;99.90;;;;;;5115974;28;20893;-74
2021/03/06 06:31:32;;;;;;;9.70;7.50;;;-3.30;99.90;;;;;;5115593;28;20524;-74
2021/03/06 06:33:58;;;;;;;10.60;7.03;;;-3.40;99.90;;;;;;5114997;28;20999;-74
2021/03/06 06:36:32;;;;;;;8.27;7.10;;;-3.50;99.90;;;;;;5115512;28;20524;-74
2021/03/06 06:38:59;;;;;;;9.20;6.60;;;-3.50;99.90;;;;;;5115112;28;20483;-74
2021/03/06 06:41:53;;;;;;;9.10;7.00;;;-3.50;99.90;;;;;;5115033;28;20215;-74
2021/03/06 06:44:20;;;;;;;10.63;7.10;;;-3.50;99.90;;;;;;5114628;28;20500;-73
2021/03/06 06:46:46;;;;;;;8.57;7.67;;;-3.30;99.90;;;;;;5115341;28;20536;-75
2021/03/06 06:49:13;;;;;;;7.53;6.77;;;-3.20;99.90;;;;;;5115603;28;20449;-73
2021/03/06 06:51:58;;;;;;;10.07;7.77;;;-3.10;99.90;;;;;;5115096;28;20492;-73
2021/03/06 06:54:25;;;;;;;11.97;7.17;;;-3.00;99.90;;;;;;5107337;28;20496;-74
2021/03/06 06:57:16;;;;;;;10.77;8.03;;;-3.00;99.90;;;;;;5114336;28;20442;-73
2021/03/06 06:59:53;;;;;;;12.10;9.33;;;-2.80;99.90;;;;;;5114512;28;20850;-73
2021/03/06 07:02:20;;;;;;;13.63;8.43;;;-2.60;99.90;;;;;;5113995;28;20476;-74
2021/03/06 07:04:48;;;;;;;10.60;8.73;;;-2.50;99.90;;;;;;5113079;28;21006;-73
2021/03/06 07:07:16;;;;;;;10.77;8.10;;;-2.40;99.90;;;;;;5114362;28;20574;-73
2021/03/06 07:10:05;;;;;;;9.63;7.70;;;-2.20;99.90;;;;;;5114127;28;20524;-73
2021/03/06 07:12:34;;;;;;;9.57;7.37;;;-2.10;99.90;;;;;;5109537;28;20532;-73
2021/03/06 07:15:02;;;;;;;10.77;6.83;;;-2.00;99.90;;;;;;5112854;28;20495;-73
2021/03/06 07:17:39;;;;;;;15.63;8.10;;;-1.80;99.90;;;;;;5113556;28;20441;-73
2021/03/06 07:20:08;;;;;;;10.50;7.10;;;-1.70;99.90;;;;;;5113588;28;20472;-73
2021/03/06 07:22:34;;;;;;;13.50;6.57;;;-1.60;99.90;;;;;;5113081;28;20939;-73
2021/03/06 07:25:01;;;;;;;9.03;6.73;;;-1.60;99.90;;;;;;5112535;28;20552;-73
2021/03/06 07:27:28;;;;;;;8.20;6.80;;;-1.40;99.90;;;;;;5113294;28;20453;-75
2021/03/06 07:29:55;;;;;;;10.10;6.80;;;-1.40;99.90;;;;;;5113302;28;20437;-74
2021/03/06 07:32:30;;;;;;;10.50;7.03;;;-1.10;99.90;;;;;;5113312;28;20529;-74
2021/03/06 07:35:03;;;;;;;8.03;7.23;;;-0.60;99.90;;;;;;5112573;28;20463;-75
2021/03/06 07:37:30;;;;;;;12.40;6.60;;;0.00;99.90;;;;;;5108440;28;20553;-75
2021/03/06 07:39:59;;;;;;;8.03;6.00;;;0.30;99.90;;;;;;5112611;27;20867;-73
2021/03/06 07:42:30;;;;;;;8.43;6.30;;;0.40;99.90;;;;;;5106437;28;20888;-74
2021/03/06 07:44:58;;;;;;;9.83;6.80;;;0.30;99.90;;;;;;5112332;28;20544;-74
2021/03/06 07:47:30;;;;;;;6.47;5.77;;;0.10;99.90;;;;;;5113222;28;20528;-75
2021/03/06 07:49:59;;;;;;;8.20;6.47;;;0.10;99.90;;;;;;5113083;28;20528;-75
2021/03/06 07:52:26;;;;;;;10.43;6.70;;;0.10;99.90;;;;;;5110870;28;20499;-74
2021/03/06 07:54:54;;;;;;;6.50;5.90;;;0.20;99.90;;;;;;5100636;28;20484;-73
2021/03/06 07:57:21;;;;;;;7.63;5.50;;;0.20;99.90;;;;;;5112661;28;20441;-74
2021/03/06 07:59:52;;;;;;;8.13;6.50;;;0.20;99.90;;;;;;5112831;28;20568;-74
2021/03/06 08:02:30;;;;;;;7.13;6.30;;;0.30;99.90;;;;;;5107460;28;20577;-75
2021/03/06 08:04:56;;;;;;;8.70;6.10;;;0.30;99.90;;;;;;5107001;28;20477;-76
2021/03/06 08:07:41;;;;;;;7.57;6.17;;;0.40;99.90;;;;;;5105462;28;20550;-75
2021/03/06 08:10:12;;;;;;;7.27;6.13;;;0.50;99.90;;;;;;5097025;28;20461;-74
2021/03/06 08:12:39;;;;;;;7.37;6.03;;;0.60;99.90;;;;;;5093328;28;20989;-74
2021/03/06 08:15:31;;;;;;;6.40;5.80;;;0.80;99.90;;;;;;5094886;28;20493;-74
2021/03/06 08:17:59;;;;;;;7.90;6.30;;;0.90;99.90;;;;;;5097433;28;20442;-72
2021/03/06 08:20:28;;;;;;;7.87;5.40;;;1.00;99.90;;;;;;5111489;28;20512;-74
2021/03/06 08:23:23;;;;;;;7.20;5.73;;;1.20;99.90;;;;;;5112221;28;20536;-73
2021/03/06 08:26:28;;;;;;;7.00;6.10;;;1.40;99.90;;;;;;5105293;28;20465;-73
2021/03/06 08:29:15;;;;;;;6.37;5.43;;;1.50;99.90;;;;;;5112744;28;20535;-73
2021/03/06 08:31:41;;;;;;;6.70;5.07;;;1.70;99.90;;;;;;5111913;28;20536;-75
2021/03/06 08:34:28;;;;;;;6.70;6.00;;;1.80;99.90;;;;;;5111058;28;20552;-72
2021/03/06 08:37:27;;;;;;;6.27;5.50;;;2.00;99.90;;;;;;5105979;28;20484;-73
2021/03/06 08:39:57;;;;;;;9.33;6.13;;;2.30;99.90;;;;;;5105567;28;20556;-73
2021/03/06 08:42:25;;;;;;;7.77;5.67;;;2.50;99.90;;;;;;5110394;28;20449;-74
2021/03/06 08:44:52;;;;;;;6.10;5.10;;;2.60;99.90;;;;;;5102533;27;20560;-71
2021/03/06 08:47:23;;;;;;;7.60;6.30;;;2.90;99.90;;;;;;5103544;28;20532;-70
2021/03/06 08:49:52;;;;;;;7.20;5.50;;;3.20;99.90;;;;;;5111839;28;20715;-73
2021/03/06 08:52:19;;;;;;;6.70;6.00;;;3.40;99.90;;;;;;5111771;28;20541;-71
2021/03/06 08:54:46;;;;;;;10.53;5.63;;;3.60;99.90;;;;;;5102960;28;20544;-73
2021/03/06 08:57:30;;;;;;;6.23;5.63;;;3.70;99.90;;;;;;5093955;28;20529;-72
2021/03/06 08:59:58;;;;;;;12.57;6.53;;;3.90;99.90;;;;;;5106288;28;20508;-72
2021/03/06 09:02:28;;;;;;;7.37;6.67;;;4.10;99.90;;;;;;5112334;28;20582;-73
2021/03/06 09:05:08;;;;;;;7.23;5.47;;;4.40;99.90;;;;;;5102196;28;20959;-78
2021/03/06 09:07:36;;;;;;;6.70;5.73;;;4.60;99.90;;;;;;5103100;28;20527;-72
2021/03/06 09:10:27;;;;;;;7.00;5.83;;;4.90;99.90;;;;;;5104943;28;20588;-74
2021/03/06 09:12:57;;;;;;;12.40;7.10;;;5.30;99.90;;;;;;5096547;28;21061;-72
2021/03/06 09:15:32;;;;;;;7.83;4.83;;;5.80;99.90;;;;;;5099065;28;20501;-74
2021/03/06 09:17:59;;;;;;;6.67;4.97;;;6.20;96.90;;;;;;5093874;28;20892;-75
2021/03/06 09:20:28;;;;;;;8.90;5.17;;;6.30;97.00;;;;;;5095473;28;20493;-71
2021/03/06 09:22:55;;;;;;;5.63;4.33;;;6.60;98.00;;;;;;5097708;28;20450;-74
2021/03/06 09:25:30;;;;;;;7.17;5.20;;;6.70;96.30;;;;;;5099307;28;20497;-70
2021/03/06 09:27:57;;;;;;;5.20;4.70;;;6.70;95.30;;;;;;5110619;28;20516;-72
2021/03/06 09:30:26;;;;;;;6.23;4.67;;;6.60;95.90;;;;;;5107963;28;20450;-72
2021/03/06 09:32:54;;;;;;;5.97;3.97;;;6.60;95.90;;;;;;5112942;28;20513;-73
2021/03/06 09:35:21;;;;;;;5.20;4.70;;;6.80;95.70;;;;;;5111788;28;20994;-72
2021/03/06 09:38:04;;;;;;;5.10;4.60;;;6.90;95.00;;;;;;5112085;28;20532;-72
2021/03/06 09:40:44;;;;;;;7.60;4.70;;;7.00;94.70;;;;;;5111873;28;21240;-72
2021/03/06 09:43:12;;;;;;;6.70;4.53;;;7.10;93.70;;;;;;5111655;28;20436;-72
2021/03/06 09:45:39;;;;;;;5.37;4.17;;;7.30;93.00;;;;;;5110890;28;20472;-72
2021/03/06 09:48:11;;;;;;;6.83;5.60;;;7.30;92.40;;;;;;5112147;28;20476;-72
2021/03/06 09:50:39;;;;;;;4.53;3.67;;;7.30;93.30;;;;;;5111573;28;20959;-72
2021/03/06 09:53:18;;;;;;;6.50;5.10;;;7.60;92.90;;;;;;5111433;28;20882;-72
2021/03/06 09:55:46;;;;;;;5.23;4.67;;;7.80;92.30;;;;;;5103769;28;20906;-73
2021/03/06 09:58:23;;;;;;;5.30;4.37;;;8.10;92.20;;;;;;5111582;28;20517;-72
2021/03/06 10:00:51;;;;;;;5.10;4.00;;;8.30;91.20;;;;;;5111530;28;20472;-73
2021/03/06 10:03:32;;;;;;;5.20;4.70;;;8.30;90.70;;;;;;5111079;28;20816;-73
2021/03/06 10:06:01;;;;;;;7.03;4.27;;;8.50;91.20;;;;;;5108692;28;20500;-73
2021/03/06 10:08:31;;;;;;;5.10;4.60;;;8.50;90.40;;;;;;5097516;28;20454;-72
2021/03/06 10:10:57;;;;;;;4.83;4.33;;;8.70;89.80;;;;;;5104989;28;20445;-73
2021/03/06 10:13:25;;;;;;;5.07;3.83;;;8.60;87.50;;;;;;5101838;28;20445;-73
2021/03/06 10:15:52;;;;;;;5.97;4.43;;;8.80;89.20;;;;;;5102195;28;20508;-72
2021/03/06 10:18:19;;;;;;;4.07;3.67;;;9.00;88.40;;;;;;5096780;28;20446;-74
2021/03/06 10:20:47;;;;;;;4.83;4.33;;;9.20;87.10;;;;;;5109468;28;20473;-73
2021/03/06 10:23:14;;;;;;;4.90;4.40;;;9.30;85.80;;;;;;5094284;28;20489;-74
2021/03/06 10:25:41;;;;;;;5.13;4.50;;;9.30;83.10;;;;;;5099237;28;20466;-71
2021/03/06 10:28:12;;;;;;;4.93;4.30;;;8.90;86.00;;;;;;5111243;28;20513;-73
2021/03/06 10:30:41;;;;;;;5.50;4.17;;;9.20;85.90;;;;;;5097981;28;20785;-72
2021/03/06 10:33:21;;;;;;;5.20;3.90;;;9.10;81.80;;;;;;5111099;28;20472;-72
2021/03/06 10:35:49;;;;;;;6.97;3.80;;;9.20;80.90;;;;;;5095169;28;20536;-71
2021/03/06 10:38:26;;;;;;;6.00;4.57;;;9.70;85.50;;;;;;5093296;28;20452;-74
2021/03/06 10:40:55;;;;;;;5.10;4.20;;;10.00;81.30;;;;;;5112496;28;20503;-74
2021/03/06 10:43:32;;;;;;;4.70;3.97;;;10.30;78.50;;;;;;5111797;28;20452;-74
2021/03/06 10:46:12;;;;;;;6.87;5.10;;;10.50;78.50;;;;;;5112877;28;20463;-75
2021/03/06 10:48:40;;;;;;;5.20;3.83;;;10.90;75.70;;;;;;5104791;28;20944;-75
2021/03/06 10:51:07;;;;;;;4.70;4.27;;;10.80;72.40;;;;;;5112991;28;20487;-76
2021/03/06 10:53:35;;;;;;;5.80;4.60;;;10.40;72.30;;;;;;5112176;28;20457;-73
2021/03/06 10:56:06;;;;;;;5.30;4.17;;;10.40;74.20;;;;;;5105980;28;20450;-73
2021/03/06 10:58:44;;;;;;;4.33;3.93;;;10.60;74.20;;;;;;5101172;28;20458;-74
2021/03/06 11:01:12;;;;;;;4.80;4.40;;;11.10;75.90;;;;;;5092565;28;20561;-74
2021/03/06 11:03:45;;;;;;;4.27;3.87;;;11.40;71.00;;;;;;5103620;28;20903;-75
2021/03/06 11:06:12;;;;;;;3.57;3.27;;;11.70;73.30;;;;;;5111778;28;20855;-74
2021/03/06 11:08:39;;;;;;;5.63;5.10;;;11.50;69.60;;;;;;5103405;28;20544;-74
2021/03/06 11:11:07;;;;;;;4.40;4.00;;;11.90;68.00;;;;;;5110203;28;20535;-75
2021/03/06 11:13:40;;;;;;;4.23;3.70;;;12.10;68.60;;;;;;5107573;28;20834;-74
2021/03/06 11:16:07;;;;;;;4.00;3.60;;;12.70;65.90;;;;;;5113325;28;20441;-74
2021/03/06 11:18:34;;;;;;;4.30;3.67;;;13.10;66.00;;;;;;5112023;28;20430;-74
2021/03/06 11:21:01;;;;;;;4.60;3.60;;;13.50;60.30;;;;;;5111769;28;20477;-74
2021/03/06 11:23:27;;;;;;;5.20;3.70;;;13.70;61.60;;;;;;5111885;28;20475;-74
2021/03/06 11:25:54;;;;;;;4.03;3.63;;;14.00;57.30;;;;;;5111966;28;21022;-74
2021/03/06 11:28:21;;;;;;;4.97;3.67;;;13.70;60.10;;;;;;5111833;28;20548;-74
2021/03/06 11:30:48;;;;;;;3.93;3.37;;;14.00;58.60;;;;;;5102822;28;20496;-74
2021/03/06 11:33:16;;;;;;;4.40;3.77;;;13.40;58.80;;;;;;5103951;28;20500;-74
2021/03/06 11:35:45;;;;;;;4.70;4.30;;;13.60;57.90;;;;;;5111070;28;20465;-74
2021/03/06 11:38:13;;;;;;;4.20;3.53;;;14.20;57.80;;;;;;5111960;28;20553;-74
2021/03/06 11:40:41;;;;;;;6.37;3.70;;;14.70;57.50;;;;;;5112017;28;20477;-75
2021/03/06 11:43:08;;;;;;;6.53;4.17;;;15.40;56.30;;;;;;5111989;28;20437;-74
2021/03/06 11:45:36;;;;;;;5.80;4.13;;;15.00;54.90;;;;;;5110480;28;20548;-74
2021/03/06 11:48:03;;;;;;;4.37;3.40;;;14.40;53.20;;;;;;5112272;28;20532;-74
2021/03/06 11:50:31;;;;;;;6.03;3.83;;;14.70;56.20;;;;;;5112153;28;20528;-74
2021/03/06 11:52:58;;;;;;;4.93;4.43;;;15.00;52.90;;;;;;5112651;28;20441;-75
2021/03/06 11:55:25;;;;;;;4.60;4.20;;;15.40;53.30;;;;;;5112031;28;20549;-75
2021/03/06 11:57:52;;;;;;;4.80;3.50;;;15.50;52.60;;;;;;5112720;28;20990;-74
2021/03/06 12:00:20;;;;;;;5.23;3.47;;;14.80;51.60;;;;;;5112659;28;20563;-76
2021/03/06 12:02:48;;;;;;;3.80;3.37;;;15.30;53.00;;;;;;5113387;28;20477;-76
2021/03/06 12:05:14;;;;;;;4.20;3.73;;;16.20;51.80;;;;;;5112013;28;21038;-77
2021/03/06 12:07:42;;;;;;;3.50;3.10;;;16.90;51.10;;;;;;5112863;28;20442;-77
2021/03/06 12:10:11;;;;;;;3.30;2.87;;;16.90;49.70;;;;;;5113324;28;20477;-78
2021/03/06 12:12:38;;;;;;;3.73;3.33;;;16.50;45.70;;;;;;5113535;28;20537;-75
2021/03/06 12:15:06;;;;;;;4.47;3.60;;;15.70;48.20;;;;;;5112328;28;20544;-77
2021/03/06 12:17:33;;;;;;;3.23;2.93;;;15.70;50.70;;;;;;5112914;28;20884;-78
2021/03/06 12:20:01;;;;;;;3.90;3.50;;;15.80;49.60;;;;;;5112755;28;20802;-76
2021/03/06 12:22:27;;;;;;;3.60;3.30;;;15.90;48.70;;;;;;5112501;28;20578;-76
2021/03/06 12:24:54;;;;;;;4.27;3.20;;;16.10;48.80;;;;;;5110018;28;20560;-78
2021/03/06 12:27:21;;;;;;;3.47;3.17;;;16.10;46.60;;;;;;5113002;28;20528;-76
2021/03/06 12:29:47;;;;;;;3.70;2.97;;;16.30;46.70;;;;;;5103507;28;20533;-78
2021/03/06 12:32:13;;;;;;;3.97;3.17;;;17.10;47.30;;;;;;5111073;28;20525;-75
2021/03/06 12:34:40;;;;;;;3.67;3.03;;;17.50;46.60;;;;;;5110248;28;20472;-77
2021/03/06 12:37:08;;;;;;;3.90;3.23;;;18.00;45.80;;;;;;5102760;28;20537;-71
2021/03/06 12:39:34;;;;;;;3.60;2.90;;;18.10;46.10;;;;;;5107122;28;20952;-72
2021/03/06 12:42:01;;;;;;;3.53;3.00;;;17.50;43.80;;;;;;5096379;28;20614;-73
2021/03/06 12:44:27;;;;;;;4.63;3.43;;;17.80;44.30;;;;;;5111050;28;20557;-74
2021/03/06 12:46:54;;;;;;;3.80;3.30;;;18.60;43.60;;;;;;5111895;28;20446;-76
2021/03/06 12:49:21;;;;;;;3.50;3.20;;;18.10;42.10;;;;;;5112970;28;20476;-77
2021/03/06 12:51:48;;;;;;;3.60;3.27;;;17.60;42.50;;;;;;5111089;28;20522;-75
2021/03/06 12:54:16;;;;;;;4.20;3.10;;;18.10;43.10;;;;;;5110634;28;20831;-77
2021/03/06 12:56:42;;;;;;;4.20;3.80;;;18.10;42.70;;;;;;5107170;28;20870;-74
2021/03/06 12:59:09;;;;;;;5.23;4.03;;;18.40;43.50;;;;;;5112340;28;20525;-75